Time;durP1;ratioP1;P1;durP2;ratioP2;P2;SDS_P1;SDS_P2;PMS_P1;PMS_P2;Temp;Humidity;BMP_temperature;BMP_pressure;BME280_temperature;BME280_humidity;BME280_pressure;Samples;Min_cycle;Max_cycle;Signal;HPM_P1;HPM_P2
2022/10/17 00:00:44;;;;;;;13.13;8.65;;;;;;;17.57;64.00;101541.06;4967920;28;123891;-72
2022/10/17 00:03:11;;;;;;;11.00;7.97;;;;;;;17.57;63.90;101549.13;4967778;28;119378;-72
2022/10/17 00:05:40;;;;;;;11.68;8.52;;;;;;;17.57;64.03;101549.13;4949664;28;118093;-72
2022/10/17 00:08:10;;;;;;;12.43;8.35;;;;;;;17.58;64.06;101550.84;4968060;28;123771;-72
2022/10/17 00:10:38;;;;;;;12.25;8.60;;;;;;;17.59;64.26;101552.56;4958098;28;121924;-72
2022/10/17 00:13:05;;;;;;;15.07;8.88;;;;;;;17.60;64.31;101558.78;4978675;28;121502;-72
2022/10/17 00:15:32;;;;;;;10.52;8.77;;;;;;;17.61;64.35;101561.38;4953688;28;116933;-72
2022/10/17 00:18:00;;;;;;;10.95;8.45;;;;;;;17.62;64.34;101557.72;4966957;28;124433;-72
2022/10/17 00:20:29;;;;;;;11.70;9.23;;;;;;;17.64;64.51;101550.44;4967143;28;123823;-72
2022/10/17 00:22:56;;;;;;;13.77;8.73;;;;;;;17.65;64.45;101551.31;4966988;28;120222;-72
2022/10/17 00:25:23;;;;;;;12.00;8.80;;;;;;;17.65;64.45;101552.19;4967005;28;118915;-72
2022/10/17 00:27:50;;;;;;;10.35;8.65;;;;;;;17.66;64.51;101548.53;4967089;28;124560;-72
2022/10/17 00:30:17;;;;;;;13.15;9.10;;;;;;;17.67;64.60;101544.91;4932578;28;123304;-72
2022/10/17 00:32:45;;;;;;;13.65;8.95;;;;;;;17.68;64.57;101535.03;4966242;28;120329;-72
2022/10/17 00:35:12;;;;;;;11.00;8.60;;;;;;;17.69;64.60;101537.63;4948270;28;120086;-72
2022/10/17 00:37:41;;;;;;;10.30;8.30;;;;;;;17.71;64.62;101541.06;4966793;28;124436;-72
2022/10/17 00:40:09;;;;;;;11.82;8.95;;;;;;;17.71;64.81;101541.06;4949158;28;123992;-72
2022/10/17 00:42:36;;;;;;;13.45;9.23;;;;;;;17.74;64.54;101544.50;4932451;28;118552;-72
2022/10/17 00:45:12;;;;;;;12.00;9.25;;;;;;;17.74;64.55;101540.00;4964285;28;119687;-72
2022/10/17 00:47:46;;;;;;;12.68;8.80;;;;;;;17.74;64.60;101537.31;4931305;28;123596;-72
2022/10/17 00:50:14;;;;;;;10.45;8.55;;;;;;;17.76;64.71;101526.50;4965384;28;123781;-72
2022/10/17 00:52:42;;;;;;;10.88;8.65;;;;;;;17.74;64.65;101523.94;4966770;28;119336;-72
2022/10/17 00:55:15;;;;;;;13.70;8.65;;;;;;;17.74;64.77;101529.28;4948353;28;117110;-72
2022/10/17 00:57:44;;;;;;;11.55;9.05;;;;;;;17.74;64.91;101523.06;4963103;28;124082;-72
2022/10/17 01:00:13;;;;;;;10.80;8.93;;;;;;;17.74;64.84;101518.56;4964691;28;124139;-72
2022/10/17 01:02:40;;;;;;;10.43;8.57;;;;;;;17.75;64.99;101524.81;4961752;28;118954;-72
2022/10/17 01:05:09;;;;;;;13.00;9.00;;;;;;;17.75;64.94;101524.81;4965014;28;118822;-72
2022/10/17 01:07:38;;;;;;;13.13;8.98;;;;;;;17.76;65.00;101526.50;4964048;28;124131;-72
2022/10/17 01:10:07;;;;;;;14.35;9.13;;;;;;;17.77;65.06;101522.88;4961783;28;124157;-72
2022/10/17 01:12:55;;;;;;;11.27;8.63;;;;;;;17.79;65.03;101526.31;4948903;28;118399;-72
2022/10/17 01:15:38;;;;;;;10.13;8.63;;;;;;;17.80;64.99;101528.91;4949042;28;118409;-72
2022/10/17 01:18:16;;;;;;;13.55;8.63;;;;;;;17.80;64.99;101526.22;4963646;28;123371;-72
2022/10/17 01:21:14;;;;;;;10.70;8.48;;;;;;;17.81;65.10;101519.03;4946052;28;123277;-72
2022/10/17 01:24:06;;;;;;;11.20;8.80;;;;;;;17.80;64.94;101517.31;4945320;28;119235;-72
2022/10/17 01:26:40;;;;;;;12.93;8.95;;;;;;;17.81;64.97;101519.03;4961011;28;119631;-72
2022/10/17 01:29:23;;;;;;;10.63;8.82;;;;;;;17.82;64.95;101515.38;4946779;28;124427;-72
2022/10/17 01:31:58;;;;;;;10.85;9.07;;;;;;;17.81;65.14;101522.56;4948140;28;123577;-72
2022/10/17 01:34:45;;;;;;;12.65;9.38;;;;;;;17.83;65.02;101522.47;4958581;28;118517;-72
2022/10/17 01:37:47;;;;;;;11.95;9.40;;;;;;;17.83;65.25;101522.47;4946337;28;118264;-71
2022/10/17 01:40:31;;;;;;;13.63;9.90;;;;;;;17.84;65.22;101518.88;4957599;28;123088;-72
2022/10/17 01:43:06;;;;;;;14.70;10.00;;;;;;;17.86;65.38;101508.94;4961089;28;123396;-72
2022/10/17 01:45:46;;;;;;;12.07;9.43;;;;;;;17.90;65.23;101513.13;4947083;28;118448;-72
2022/10/17 01:48:23;;;;;;;11.32;9.60;;;;;;;17.93;65.45;101507.53;4963188;28;119226;-72
2022/10/17 01:51:00;;;;;;;13.80;9.65;;;;;;;17.96;65.55;101507.34;4947352;28;123891;-72
2022/10/17 01:53:33;;;;;;;14.77;9.98;;;;;;;17.98;65.51;101492.03;4946051;28;123547;-73
2022/10/17 01:56:02;;;;;;;11.85;9.05;;;;;;;18.03;65.67;101491.75;4960890;28;119277;-72
2022/10/17 01:58:35;;;;;;;15.00;9.48;;;;;;;18.05;65.78;101489.81;4962357;28;118176;-72
2022/10/17 02:01:05;;;;;;;13.45;8.70;;;;;;;18.07;65.82;101488.75;4947366;28;125200;-72
2022/10/17 02:03:33;;;;;;;11.95;9.13;;;;;;;18.11;65.75;101493.91;4965907;28;123973;-72
2022/10/17 02:06:02;;;;;;;14.25;9.50;;;;;;;18.14;65.76;101491.00;4947669;28;119205;-72
2022/10/17 02:08:50;;;;;;;11.98;9.40;;;;;;;18.16;65.79;101494.44;4948123;28;118234;-72
2022/10/17 02:11:23;;;;;;;14.38;9.50;;;;;;;18.19;65.72;101491.56;4947337;28;124908;-72
2022/10/17 02:14:18;;;;;;;16.05;9.93;;;;;;;18.21;65.99;101495.84;4947770;28;122545;-72
2022/10/17 02:17:01;;;;;;;12.70;9.27;;;;;;;18.24;65.79;101489.44;4951357;28;120907;-72
2022/10/17 02:20:07;;;;;;;12.27;8.93;;;;;;;18.26;65.73;101493.72;4948285;28;119538;-72
2022/10/17 02:22:41;;;;;;;14.55;9.50;;;;;;;18.29;65.81;101503.41;4946087;28;124947;-71
2022/10/17 02:25:21;;;;;;;10.45;8.95;;;;;;;18.31;65.84;101501.50;4947752;28;123868;-72
2022/10/17 02:28:00;;;;;;;13.10;9.20;;;;;;;18.33;65.69;101488.84;4948263;28;118553;-72
2022/10/17 02:30:43;;;;;;;12.25;9.38;;;;;;;18.35;65.69;101503.00;4948294;28;119161;-72
2022/10/17 02:33:21;;;;;;;11.52;9.13;;;;;;;18.35;65.69;101486.91;4944707;28;123683;-72
2022/10/17 02:35:53;;;;;;;13.30;9.25;;;;;;;18.38;65.74;101485.81;4948213;28;123963;-72
2022/10/17 02:38:21;;;;;;;12.52;9.68;;;;;;;18.39;65.64;101487.56;4963014;28;119514;-72
2022/10/17 02:40:52;;;;;;;13.07;9.38;;;;;;;18.39;65.61;101493.78;4948045;28;118259;-72
2022/10/17 02:43:22;;;;;;;11.50;8.95;;;;;;;18.41;65.76;101491.00;4944467;28;124557;-72
2022/10/17 02:45:51;;;;;;;11.20;9.30;;;;;;;18.42;65.56;101492.69;4942040;28;124141;-72
2022/10/17 02:48:34;;;;;;;15.13;9.52;;;;;;;18.43;65.48;101483.69;4958867;28;118987;-72
2022/10/17 02:51:11;;;;;;;14.10;9.65;;;;;;;18.42;65.49;101488.22;4954964;28;120026;-72
2022/10/17 02:54:18;;;;;;;13.07;9.32;;;;;;;18.42;65.52;101481.97;4950761;28;122213;-72
2022/10/17 02:56:55;;;;;;;12.85;8.85;;;;;;;18.43;65.50;101481.88;4911783;28;123612;-72
2022/10/17 02:59:25;;;;;;;14.15;10.15;;;;;;;18.43;65.52;101487.22;4965010;28;119057;-72
2022/10/17 03:01:53;;;;;;;12.23;9.20;;;;;;;18.45;65.61;101484.44;4950871;28;118685;-72
2022/10/17 03:04:20;;;;;;;13.35;9.45;;;;;;;18.45;65.60;101487.97;4949039;28;122823;-72
2022/10/17 03:06:48;;;;;;;13.40;9.63;;;;;;;18.46;65.37;101489.72;4964019;28;123866;-72
2022/10/17 03:09:17;;;;;;;11.85;10.02;;;;;;;18.48;65.37;101490.47;4950108;28;120224;-72
2022/10/17 03:11:44;;;;;;;14.40;10.07;;;;;;;18.48;65.37;101493.16;4951241;28;119130;-72
2022/10/17 03:14:11;;;;;;;16.25;9.63;;;;;;;18.48;65.39;101492.31;4949438;28;123018;-72
2022/10/17 03:16:39;;;;;;;18.02;9.68;;;;;;;18.48;65.50;101493.16;4938781;28;123385;-72
2022/10/17 03:19:06;;;;;;;12.82;9.55;;;;;;;18.49;65.39;101489.50;4968975;28;120571;-72
2022/10/17 03:21:36;;;;;;;14.55;9.25;;;;;;;18.51;65.64;101496.59;4951196;28;118062;-72
2022/10/17 03:24:05;;;;;;;16.00;10.02;;;;;;;18.49;65.24;101494.84;4951289;28;123827;-72
2022/10/17 03:26:32;;;;;;;16.10;10.07;;;;;;;18.49;65.27;101494.84;4968780;28;123987;-72
2022/10/17 03:28:59;;;;;;;13.05;9.52;;;;;;;18.49;65.06;101488.63;4948474;28;119339;-72
2022/10/17 03:31:28;;;;;;;11.25;9.32;;;;;;;18.48;65.10;101498.53;4950406;28;118476;-72
2022/10/17 03:33:56;;;;;;;12.88;10.15;;;;;;;18.47;65.07;101502.16;4946985;28;123233;-72
2022/10/17 03:36:23;;;;;;;12.20;9.82;;;;;;;18.45;65.08;101496.03;4964310;28;123243;-72
2022/10/17 03:38:53;;;;;;;16.38;9.93;;;;;;;18.44;65.29;101502.38;4964582;28;119746;-72
2022/10/17 03:41:22;;;;;;;13.23;10.13;;;;;;;18.44;65.25;101499.69;4949888;28;118615;-72
2022/10/17 03:43:52;;;;;;;12.35;10.35;;;;;;;18.43;65.32;101495.28;4966594;28;123964;-72
2022/10/17 03:46:19;;;;;;;11.85;9.65;;;;;;;18.43;65.51;101495.28;4948182;28;123062;-72
2022/10/17 03:48:47;;;;;;;13.35;9.13;;;;;;;18.44;65.54;101497.00;4950092;28;118850;-72
2022/10/17 03:51:15;;;;;;;16.65;9.82;;;;;;;18.44;65.59;101497.00;4950746;28;118064;-72
2022/10/17 03:53:50;;;;;;;13.23;9.93;;;;;;;18.46;65.64;101503.13;4950309;28;123435;-73
2022/10/17 03:56:23;;;;;;;12.27;10.00;;;;;;;18.47;65.67;101496.78;4951407;28;123301;-73
2022/10/17 03:58:56;;;;;;;12.80;10.10;;;;;;;18.47;65.54;101488.72;4948995;28;119796;-72
2022/10/17 04:01:24;;;;;;;13.90;10.13;;;;;;;18.49;65.73;101494.84;4933032;28;119364;-72
2022/10/17 04:03:53;;;;;;;13.63;10.13;;;;;;;18.51;65.73;101491.22;4950623;28;123274;-72
2022/10/17 04:06:21;;;;;;;14.45;9.57;;;;;;;18.53;65.70;101489.28;4948982;28;124045;-73
2022/10/17 04:08:49;;;;;;;12.75;9.82;;;;;;;18.54;65.83;101480.28;4947627;28;118657;-72
2022/10/17 04:11:21;;;;;;;12.98;10.15;;;;;;;18.55;65.78;101476.63;4915004;28;118635;-72
2022/10/17 04:13:54;;;;;;;15.05;8.93;;;;;;;18.57;65.82;101496.16;4942766;28;123548;-72
2022/10/17 04:16:22;;;;;;;13.98;9.90;;;;;;;18.58;65.86;101497.91;4950015;28;124319;-73
2022/10/17 04:18:58;;;;;;;13.85;9.48;;;;;;;18.61;66.00;101497.66;4949582;28;117992;-72
2022/10/17 04:21:29;;;;;;;10.98;9.35;;;;;;;18.63;66.02;101498.44;4946560;28;118242;-72
2022/10/17 04:24:00;;;;;;;13.95;9.85;;;;;;;18.66;65.96;101487.47;4941753;28;124202;-72
2022/10/17 04:26:44;;;;;;;14.95;9.68;;;;;;;18.69;66.25;101489.97;4947728;28;123517;-72
2022/10/17 04:29:14;;;;;;;13.40;9.82;;;;;;;18.73;66.12;101495.97;4949123;28;118872;-72
2022/10/17 04:31:43;;;;;;;13.05;9.25;;;;;;;18.75;66.24;101488.69;4945204;28;118371;-72
2022/10/17 04:34:17;;;;;;;11.55;9.68;;;;;;;18.79;66.37;101506.28;4945589;28;124609;-72
2022/10/17 04:36:45;;;;;;;12.45;9.93;;;;;;;18.82;66.11;101512.34;4946458;28;123467;-72
2022/10/17 04:39:13;;;;;;;13.55;9.23;;;;;;;18.86;66.38;101524.56;4943977;28;118526;-72
2022/10/17 04:41:46;;;;;;;13.63;9.40;;;;;;;18.90;66.39;101524.38;4949270;28;118498;-72
2022/10/17 04:44:13;;;;;;;15.05;9.90;;;;;;;18.94;66.15;101520.50;4965795;28;124287;-72
2022/10/17 04:46:46;;;;;;;15.68;9.73;;;;;;;18.98;66.21;101516.63;4948349;28;122780;-72
2022/10/17 04:49:13;;;;;;;13.50;9.50;;;;;;;19.02;66.38;101523.50;4949304;28;119439;-73
2022/10/17 04:51:43;;;;;;;11.07;9.05;;;;;;;19.06;66.15;101527.69;4947491;28;119657;-72
2022/10/17 04:54:17;;;;;;;12.75;9.35;;;;;;;19.08;66.13;101520.41;4949874;28;123807;-72
2022/10/17 04:56:47;;;;;;;11.50;8.73;;;;;;;19.11;66.00;101533.59;4948772;28;124462;-72
2022/10/17 04:59:14;;;;;;;13.55;9.20;;;;;;;19.14;65.92;101528.03;4947675;28;119080;-73
2022/10/17 05:01:44;;;;;;;10.82;8.80;;;;;;;19.18;66.05;101536.72;4949216;28;118597;-73
2022/10/17 05:04:12;;;;;;;12.43;8.77;;;;;;;19.20;65.91;101532.94;4946825;28;123219;-73
2022/10/17 05:06:39;;;;;;;11.70;8.15;;;;;;;19.22;66.03;101525.66;4949279;28;124998;-73
2022/10/17 05:09:38;;;;;;;10.27;8.30;;;;;;;19.23;65.85;101532.75;4950114;28;117732;-73
2022/10/17 05:12:05;;;;;;;10.32;8.02;;;;;;;19.27;65.69;101538.75;4927029;28;118204;-73
2022/10/17 05:14:38;;;;;;;10.05;7.65;;;;;;;19.29;65.87;101541.31;4944000;28;123511;-71
2022/10/17 05:17:05;;;;;;;9.63;7.68;;;;;;;19.32;65.84;101541.13;4948332;28;124109;-72
2022/10/17 05:19:32;;;;;;;12.13;7.95;;;;;;;19.32;65.72;101541.97;4949375;28;118640;-71
2022/10/17 05:22:00;;;;;;;11.20;7.82;;;;;;;19.35;65.74;101543.59;4951497;28;118385;-72
2022/10/17 05:24:28;;;;;;;9.18;7.63;;;;;;;19.37;65.60;101555.09;4933278;28;123205;-72
2022/10/17 05:26:55;;;;;;;10.88;8.02;;;;;;;19.38;65.65;101546.91;4945733;28;124792;-72
2022/10/17 05:29:22;;;;;;;11.40;7.85;;;;;;;19.41;65.42;101548.53;4946413;28;118542;-72
2022/10/17 05:31:55;;;;;;;12.25;7.93;;;;;;;19.43;65.35;101549.25;4948481;28;118562;-72
2022/10/17 05:34:23;;;;;;;11.07;7.72;;;;;;;19.46;65.59;101562.50;4949461;28;123524;-72
2022/10/17 05:36:51;;;;;;;10.63;7.78;;;;;;;19.46;65.42;101557.13;4947249;28;123116;-72
2022/10/17 05:39:22;;;;;;;12.18;7.90;;;;;;;19.47;65.42;101555.28;4947154;28;120162;-72
2022/10/17 05:41:51;;;;;;;13.90;7.78;;;;;;;19.49;65.40;101556.88;4948210;28;119109;-72
2022/10/17 05:44:18;;;;;;;11.52;7.70;;;;;;;19.51;65.34;101563.00;4947338;28;123129;-72
2022/10/17 05:46:51;;;;;;;9.55;7.80;;;;;;;19.52;65.30;101564.72;4946908;28;123106;-72
2022/10/17 05:49:19;;;;;;;10.65;7.93;;;;;;;19.54;65.45;101567.31;4947959;28;118642;-72
2022/10/17 05:52:06;;;;;;;8.25;7.43;;;;;;;19.55;65.23;101569.03;4947777;28;119538;-72
2022/10/17 05:54:45;;;;;;;10.50;8.00;;;;;;;19.56;65.24;101571.59;4944669;28;123549;-73
2022/10/17 05:57:12;;;;;;;16.20;7.80;;;;;;;19.58;65.46;101574.19;4945389;28;123518;-72
2022/10/17 05:59:40;;;;;;;10.50;7.45;;;;;;;19.60;65.41;101583.00;4946793;28;119026;-73
2022/10/17 06:02:12;;;;;;;10.70;7.60;;;;;;;19.62;65.25;101576.53;4946611;28;117347;-72
2022/10/17 06:04:44;;;;;;;10.98;7.20;;;;;;;19.63;65.38;101578.25;4945995;28;124257;-72
2022/10/17 06:07:12;;;;;;;8.57;7.40;;;;;;;19.65;65.10;101581.69;4947305;28;123486;-73
2022/10/17 06:09:41;;;;;;;9.77;7.10;;;;;;;19.68;65.29;101579.75;4946842;28;118325;-72
2022/10/17 06:12:09;;;;;;;11.18;7.53;;;;;;;19.70;65.22;101583.19;4946813;28;118271;-73
2022/10/17 06:14:36;;;;;;;9.25;7.05;;;;;;;19.72;65.37;101587.53;4964448;28;124287;-72
2022/10/17 06:17:05;;;;;;;11.73;7.40;;;;;;;19.73;65.03;101588.38;4948037;28;123532;-72
2022/10/17 06:19:32;;;;;;;11.55;7.25;;;;;;;19.74;65.00;101584.72;4947877;28;118447;-72
2022/10/17 06:21:59;;;;;;;10.15;7.28;;;;;;;19.76;65.11;101588.16;4946279;28;118836;-73
2022/10/17 06:24:27;;;;;;;11.13;7.43;;;;;;;19.78;65.03;101591.63;4948023;28;123796;-72
2022/10/17 06:26:56;;;;;;;11.15;7.18;;;;;;;19.81;64.96;101596.75;4950572;28;123003;-72
2022/10/17 06:29:23;;;;;;;9.52;7.20;;;;;;;19.82;65.14;101598.47;4950370;28;119640;-72
2022/10/17 06:31:51;;;;;;;10.98;7.63;;;;;;;19.83;65.00;101601.06;4945457;28;119968;-72
2022/10/17 06:34:19;;;;;;;8.57;7.00;;;;;;;19.85;65.06;101600.94;4944569;28;123163;-72
2022/10/17 06:36:46;;;;;;;12.02;7.30;;;;;;;19.86;65.08;101599.97;4951171;28;123961;-72
2022/10/17 06:39:14;;;;;;;9.82;7.35;;;;;;;19.89;64.95;101605.13;4969316;28;119324;-72
2022/10/17 06:41:55;;;;;;;11.38;7.57;;;;;;;19.90;64.86;101601.47;4951241;28;117554;-72
2022/10/17 06:44:38;;;;;;;13.00;7.78;;;;;;;19.92;64.91;101604.91;4951709;28;123303;-71
2022/10/17 06:47:17;;;;;;;9.90;7.43;;;;;;;19.94;64.90;101597.56;4962735;28;124292;-72
2022/10/17 06:49:46;;;;;;;9.20;7.28;;;;;;;19.94;64.82;101597.56;4943018;28;120257;-72
2022/10/17 06:52:34;;;;;;;11.00;6.93;;;;;;;19.95;64.76;101593.94;4946396;28;118612;-72
2022/10/17 06:55:27;;;;;;;10.57;7.25;;;;;;;19.97;64.73;101609.97;4937202;28;123515;-72
2022/10/17 06:58:16;;;;;;;10.20;7.18;;;;;;;19.97;64.67;101602.75;4967608;28;124190;-73
2022/10/17 07:01:02;;;;;;;10.98;7.60;;;;;;;19.98;64.63;101609.81;4951112;28;118378;-73
2022/10/17 07:03:30;;;;;;;13.40;7.45;;;;;;;19.99;64.57;101611.56;4966374;28;119009;-73
2022/10/17 07:05:57;;;;;;;11.30;8.10;;;;;;;20.00;64.65;101607.91;4950681;28;124192;-73
2022/10/17 07:08:25;;;;;;;12.85;8.02;;;;;;;20.03;64.83;101618.41;4950869;28;123116;-73
2022/10/17 07:10:53;;;;;;;13.13;8.00;;;;;;;20.05;64.62;101612.09;4950902;28;119529;-73
2022/10/17 07:13:21;;;;;;;13.60;8.27;;;;;;;20.07;64.58;101619.06;4951478;28;118019;-73
2022/10/17 07:15:50;;;;;;;11.20;8.10;;;;;;;20.09;64.63;101616.25;4936757;28;124090;-73
2022/10/17 07:18:17;;;;;;;8.57;7.25;;;;;;;20.13;64.67;101625.81;4951027;28;123609;-73
2022/10/17 07:20:51;;;;;;;9.40;7.50;;;;;;;20.16;64.71;101623.78;4945646;28;119378;-73
2022/10/17 07:23:19;;;;;;;10.13;7.57;;;;;;;20.19;64.62;101611.91;4947943;28;119235;-73
2022/10/17 07:25:46;;;;;;;12.18;8.05;;;;;;;20.22;64.56;101617.94;4961052;28;124503;-73
2022/10/17 07:28:15;;;;;;;12.98;7.63;;;;;;;20.26;64.56;101626.63;4949692;28;123575;-72
2022/10/17 07:30:43;;;;;;;9.98;8.20;;;;;;;20.30;64.54;101638.03;4948692;28;118328;-73
2022/10/17 07:33:11;;;;;;;9.90;7.95;;;;;;;20.31;64.47;101643.31;4949478;28;118122;-73
2022/10/17 07:35:41;;;;;;;12.63;7.80;;;;;;;20.34;64.49;101643.09;4949027;28;123337;-73
2022/10/17 07:38:09;;;;;;;16.05;8.70;;;;;;;20.37;64.37;101647.38;4947656;28;123680;-73
2022/10/17 07:40:36;;;;;;;9.90;7.93;;;;;;;20.39;64.30;101648.13;4949972;28;119781;-73
2022/10/17 07:43:04;;;;;;;11.30;8.43;;;;;;;20.40;64.30;101653.41;4951275;28;118686;-73
2022/10/17 07:45:31;;;;;;;10.55;7.88;;;;;;;20.44;64.20;101659.41;4950570;28;123933;-73
2022/10/17 07:47:58;;;;;;;10.05;7.50;;;;;;;20.46;64.28;101664.69;4952217;28;123654;-72
2022/10/17 07:50:25;;;;;;;8.93;7.82;;;;;;;20.48;64.20;101678.88;4930660;28;119203;-72
2022/10/17 07:52:52;;;;;;;11.10;8.57;;;;;;;20.49;64.20;101677.91;4967379;28;119293;-73
2022/10/17 07:55:19;;;;;;;10.60;7.93;;;;;;;20.50;64.17;101685.00;4948767;28;123312;-73
2022/10/17 07:57:46;;;;;;;11.40;7.75;;;;;;;20.52;64.15;101699.22;4964554;28;124650;-73
2022/10/17 08:00:13;;;;;;;10.13;7.63;;;;;;;20.54;64.22;101705.34;4965692;28;119507;-73
2022/10/17 08:02:40;;;;;;;12.95;7.82;;;;;;;20.55;64.20;101726.75;4965193;28;118868;-73
2022/10/17 08:05:07;;;;;;;15.93;8.13;;;;;;;20.56;64.20;101735.69;4948904;28;124543;-73
2022/10/17 08:07:34;;;;;;;13.32;8.30;;;;;;;20.57;64.03;101745.50;4967152;28;123440;-73
2022/10/17 08:10:02;;;;;;;13.45;7.97;;;;;;;20.56;64.18;101743.75;4947245;28;120342;-73
2022/10/17 08:12:33;;;;;;;10.68;7.25;;;;;;;20.57;64.24;101748.19;4949570;28;119930;-73
2022/10/17 08:15:00;;;;;;;9.25;7.57;;;;;;;20.59;64.17;101765.09;4967400;28;124398;-74
2022/10/17 08:17:27;;;;;;;11.13;7.30;;;;;;;20.61;64.20;101763.16;4952351;28;123892;-74
2022/10/17 08:19:54;;;;;;;9.68;7.18;;;;;;;20.60;64.09;101772.19;4963815;28;118988;-72
2022/10/17 08:22:21;;;;;;;9.50;7.07;;;;;;;20.59;64.30;101767.78;4933527;28;116714;-72
2022/10/17 08:24:48;;;;;;;9.00;6.85;;;;;;;20.60;64.16;101767.66;4932999;28;123511;-72
2022/10/17 08:27:20;;;;;;;11.02;7.15;;;;;;;20.62;64.16;101770.25;4967834;28;124786;-72
2022/10/17 08:29:47;;;;;;;8.10;6.60;;;;;;;20.64;64.12;101779.06;4966915;28;118891;-71
2022/10/17 08:32:14;;;;;;;8.73;6.43;;;;;;;20.67;64.24;101783.41;4967082;28;118829;-73
2022/10/17 08:34:41;;;;;;;12.85;6.55;;;;;;;20.69;64.17;101789.53;4966477;28;123092;-73
2022/10/17 08:37:08;;;;;;;8.80;6.32;;;;;;;20.70;64.13;101784.03;4946063;28;123419;-73
2022/10/17 08:39:41;;;;;;;11.75;6.30;;;;;;;20.73;64.02;101805.34;4950020;28;118577;-73
2022/10/17 08:42:23;;;;;;;8.25;5.53;;;;;;;20.74;64.05;101812.44;4965047;28;119137;-72
2022/10/17 08:45:09;;;;;;;9.60;6.05;;;;;;;20.77;63.97;101811.34;4963285;28;123976;-73
2022/10/17 08:47:47;;;;;;;9.05;6.47;;;;;;;20.78;63.95;101824.72;4963188;28;123615;-72
2022/10/17 08:50:26;;;;;;;6.45;5.47;;;;;;;20.81;63.91;101829.00;4947114;28;119027;-72
2022/10/17 08:53:01;;;;;;;10.80;5.80;;;;;;;20.82;64.13;101819.13;4960169;28;118748;-73
2022/10/17 08:55:34;;;;;;;10.60;5.63;;;;;;;20.85;63.83;101824.25;4948339;28;124331;-73
2022/10/17 08:58:19;;;;;;;8.40;5.82;;;;;;;20.87;63.86;101827.69;4946924;28;123818;-73
2022/10/17 09:00:52;;;;;;;10.07;5.80;;;;;;;20.90;63.68;101827.47;4965145;28;119951;-73
2022/10/17 09:03:53;;;;;;;6.22;5.57;;;;;;;20.92;63.85;101822.84;4950056;28;97791;-74
2022/10/17 09:06:28;;;;;;;9.20;6.15;;;;;;;20.95;63.49;101820.78;4962769;28;123807;-74
2022/10/17 09:09:24;;;;;;;;;;;;;;;20.95;63.82;101841.47;4949165;28;122945;-74
2022/10/17 09:12:03;;;;;;;9.80;5.68;;;;;;;20.97;63.53;101829.59;4966529;28;119819;-74
2022/10/17 09:15:04;;;;;;;8.73;5.25;;;;;;;20.99;63.62;101829.50;4963210;28;119329;-73
2022/10/17 09:17:48;;;;;;;8.98;4.90;;;;;;;21.01;63.59;101827.56;4939232;28;124268;-74
2022/10/17 09:20:26;;;;;;;5.35;4.65;;;;;;;21.05;63.75;101830.88;4947834;28;124340;-75
2022/10/17 09:22:59;;;;;;;9.48;5.00;;;;;;;21.08;63.57;101831.53;4960781;28;119321;-74
2022/10/17 09:25:27;;;;;;;7.22;4.80;;;;;;;21.09;63.53;101833.22;4955689;28;118883;-72
2022/10/17 09:28:12;;;;;;;10.00;5.10;;;;;;;21.10;63.61;101834.09;4948739;28;125062;-71
2022/10/17 09:30:43;;;;;;;7.50;4.82;;;;;;;21.11;63.62;101831.28;4965945;28;123557;-71
2022/10/17 09:33:27;;;;;;;10.63;5.10;;;;;;;21.12;63.46;101842.94;4948942;28;119268;-72
2022/10/17 09:36:33;;;;;;;9.43;5.20;;;;;;;21.11;63.51;101869.00;4979052;28;118738;-73
2022/10/17 09:39:04;;;;;;;6.32;5.13;;;;;;;21.10;63.44;101905.00;4965204;28;124303;-72
2022/10/17 09:41:40;;;;;;;9.25;5.45;;;;;;;21.08;63.58;101928.50;4966425;28;124038;-73
2022/10/17 09:44:24;;;;;;;8.13;4.95;;;;;;;21.05;63.67;101950.25;4963761;28;118524;-72
2022/10/17 09:47:12;;;;;;;9.10;5.80;;;;;;;21.02;63.84;101815.81;4949508;28;118080;-71
2022/10/17 09:49:42;;;;;;;7.30;5.80;;;;;;;20.99;63.86;101837.59;4966473;28;123956;-72
2022/10/17 09:52:24;;;;;;;8.63;5.72;;;;;;;20.97;63.98;101812.59;4966367;28;123476;-72
2022/10/17 09:54:58;;;;;;;10.38;6.15;;;;;;;20.97;64.07;101809.91;4964241;28;119830;-72
2022/10/17 09:57:25;;;;;;;11.50;6.30;;;;;;;20.96;64.23;101813.56;4961022;28;120044;-73
2022/10/17 10:00:01;;;;;;;9.65;5.78;;;;;;;20.96;64.23;101833.28;4949302;28;124624;-72
2022/10/17 10:02:32;;;;;;;10.95;5.82;;;;;;;20.97;64.33;101839.53;4964661;28;123791;-73
2022/10/17 10:05:05;;;;;;;8.48;6.05;;;;;;;20.98;64.38;101857.41;4963227;28;118739;-73
2022/10/17 10:07:37;;;;;;;7.40;6.03;;;;;;;20.98;64.41;101862.78;4949374;28;118579;-73
2022/10/17 10:10:23;;;;;;;9.30;5.85;;;;;;;21.00;64.58;101877.00;4949272;28;122905;-73
2022/10/17 10:13:14;;;;;;;9.68;6.22;;;;;;;21.00;64.47;101885.06;4949649;28;124076;-73
2022/10/17 10:15:47;;;;;;;10.77;6.35;;;;;;;21.00;64.71;101898.53;4968251;28;118564;-73
2022/10/17 10:18:23;;;;;;;11.68;6.13;;;;;;;20.99;64.63;101880.69;4968192;28;118912;-72
2022/10/17 10:21:04;;;;;;;8.48;6.18;;;;;;;20.98;64.63;101852.00;4951077;28;123769;-73
2022/10/17 10:23:33;;;;;;;9.20;6.13;;;;;;;20.98;64.77;101857.41;4946652;28;123763;-73
2022/10/17 10:26:17;;;;;;;9.00;6.10;;;;;;;20.98;64.86;101862.78;4968818;28;119734;-73
2022/10/17 10:28:54;;;;;;;8.23;6.30;;;;;;;20.96;64.92;101875.50;4963878;28;118822;-73
2022/10/17 10:31:31;;;;;;;9.05;6.38;;;;;;;20.94;65.00;101883.69;4951385;28;124282;-73
2022/10/17 10:34:02;;;;;;;8.90;6.03;;;;;;;20.92;64.89;101874.00;4949122;28;123563;-73
2022/10/17 10:36:49;;;;;;;8.30;6.07;;;;;;;20.91;64.77;101883.06;4950027;28;119747;-73
2022/10/17 10:39:27;;;;;;;8.88;5.93;;;;;;;20.87;65.00;101881.56;4951721;28;118025;-72
2022/10/17 10:41:54;;;;;;;9.40;6.30;;;;;;;20.90;65.17;101892.13;4965711;28;124605;-72
2022/10/17 10:44:25;;;;;;;8.73;6.65;;;;;;;20.90;65.25;101892.13;4949208;28;124338;-73
2022/10/17 10:47:19;;;;;;;9.65;6.53;;;;;;;20.92;65.23;101900.94;4968114;28;120093;-73
2022/10/17 10:49:46;;;;;;;12.45;7.10;;;;;;;20.93;65.34;101894.59;4968086;28;119936;-73
2022/10/17 10:52:26;;;;;;;12.52;7.32;;;;;;;20.93;65.43;101897.28;4969379;28;124350;-73
2022/10/17 10:55:02;;;;;;;9.63;6.50;;;;;;;20.96;65.44;101891.66;4951481;28;123446;-73
2022/10/17 10:57:34;;;;;;;11.48;6.30;;;;;;;20.97;65.67;101893.41;4921262;28;118428;-73
2022/10/17 11:00:11;;;;;;;7.32;6.20;;;;;;;20.99;65.56;101905.78;4967741;28;119785;-73
2022/10/17 11:03:05;;;;;;;10.82;6.40;;;;;;;21.03;65.43;101925.28;4952315;28;123738;-73
2022/10/17 11:06:01;;;;;;;7.78;5.82;;;;;;;21.06;65.60;101918.78;4955315;28;124384;-73
2022/10/17 11:08:37;;;;;;;8.70;6.50;;;;;;;21.09;65.63;101930.19;4956546;28;118403;-73
2022/10/17 11:11:17;;;;;;;10.32;6.28;;;;;;;21.11;65.62;101939.03;4948812;28;118647;-73
2022/10/17 11:13:57;;;;;;;9.07;6.70;;;;;;;21.12;65.66;101930.00;4962516;28;123891;-72
2022/10/17 11:16:28;;;;;;;8.50;6.40;;;;;;;21.15;65.61;101935.16;4965438;28;123966;-73
2022/10/17 11:19:14;;;;;;;9.25;6.40;;;;;;;21.18;65.77;101932.22;4967210;28;118982;-73
2022/10/17 11:21:54;;;;;;;9.23;5.80;;;;;;;21.21;65.74;101944.63;4947249;28;118175;-73
2022/10/17 11:24:30;;;;;;;7.75;6.07;;;;;;;21.23;65.63;101952.59;4963537;28;124621;-73
2022/10/17 11:27:01;;;;;;;9.55;6.40;;;;;;;21.25;65.79;101961.41;4947545;28;124123;-73
2022/10/17 11:29:33;;;;;;;8.70;7.70;;;;;;;21.26;65.66;101960.47;4955596;28;118183;-73
2022/10/17 11:32:18;;;;;;;11.13;8.30;;;;;;;21.25;65.67;101966.81;4945703;28;117851;-73
2022/10/17 11:34:48;;;;;;;9.52;8.43;;;;;;;21.26;65.64;101971.25;4947558;28;124018;-73
2022/10/17 11:37:27;;;;;;;16.23;8.40;;;;;;;21.26;65.57;101979.31;4967538;28;124068;-73
2022/10/17 11:40:26;;;;;;;11.13;8.85;;;;;;;21.25;65.77;101988.38;4967965;28;120269;-72